Cerise — OR8270 — position and weather

sailwx.info

Track history (hours):
 
Tides and Currents Weather Stations Pressure Air Temp Water Temp Dewpoint Dewpoint Depression Visibility Wind Speed Wind Dir Waves Ship Positions

Cerise

Last reported at 2018-Feb-24 14:30 UTC. Time now 2018-Feb-24 14:39 UTC.
Position N 28°08' W 015°26'.

Length 10 m.

Type: Sailing vessel. MMSI: 205827010.

Date/timePositionNaut miles runAvg speedWind from/ knotsBaromVisibWave heightAir tempDewpointWater temp
2018-Feb-24 14:30N 28°08' W 015°26'0 0.0
2018-Feb-24 14:00N 28°08' W 015°26'0 0.4
2018-Feb-24 13:28N 28°08' W 015°25'2 4.4
2018-Feb-24 12:58N 28°07' W 015°23'3 5.0
2018-Feb-24 12:27N 28°08' W 015°21'3 5.2
2018-Feb-24 11:56N 28°10' W 015°18'2 4.7
2018-Feb-24 11:26N 28°12' W 015°16'3 5.0
2018-Feb-24 10:56N 28°13' W 015°14'3 4.9
2018-Feb-24 10:25N 28°15' W 015°12'3 4.8
2018-Feb-24 09:44N 28°17' W 015°09'1 4.5
2018-Feb-24 09:30N 28°17' W 015°08'88 2.1
2018-Feb-22 15:39N 28°55' W 013°37'2 5.3
2018-Feb-22 15:17N 28°56' W 013°35'2 5.2
2018-Feb-22 14:53N 28°57' W 013°33'  
2018-Feb-17 11:48N 28°58' W 013°32'1 0.1
2018-Feb-16 17:35N 28°57' W 013°32'0 5.5
2018-Feb-16 17:30N 28°57' W 013°32'3 5.3
2018-Feb-16 16:59N 28°59' W 013°29'  
Track history (hours):
 
Tides and Currents Weather Stations Pressure Air Temp Water Temp Dewpoint Dewpoint Depression Visibility Wind Speed Wind Dir Waves Ship Positions

Cerise

Last reported at 2018-Feb-24 14:30 UTC. Time now 2018-Feb-24 14:39 UTC.
Position N 28°08' W 015°26'.

Length 10 m.

Type: Sailing vessel. MMSI: 205827010.

Date/timePositionNaut miles runAvg speedWind from/ knotsBaromVisibWave heightAir tempDewpointWater temp
2018-Feb-24 14:30N 28°08' W 015°26'0 0.0
2018-Feb-24 14:00N 28°08' W 015°26'0 0.4
2018-Feb-24 13:28N 28°08' W 015°25'2 4.4
2018-Feb-24 12:58N 28°07' W 015°23'3 5.0
2018-Feb-24 12:27N 28°08' W 015°21'3 5.2
2018-Feb-24 11:56N 28°10' W 015°18'2 4.7
2018-Feb-24 11:26N 28°12' W 015°16'3 5.0
2018-Feb-24 10:56N 28°13' W 015°14'3 4.9
2018-Feb-24 10:25N 28°15' W 015°12'3 4.8
2018-Feb-24 09:44N 28°17' W 015°09'1 4.5
2018-Feb-24 09:30N 28°17' W 015°08'88 2.1
2018-Feb-22 15:39N 28°55' W 013°37'2 5.3
2018-Feb-22 15:17N 28°56' W 013°35'2 5.2
2018-Feb-22 14:53N 28°57' W 013°33'  
2018-Feb-17 11:48N 28°58' W 013°32'1 0.1
2018-Feb-16 17:35N 28°57' W 013°32'0 5.5
2018-Feb-16 17:30N 28°57' W 013°32'3 5.3
2018-Feb-16 16:59N 28°59' W 013°29'  

Dump ship's entire track history